createdAt,value
2019-03-28T00:00:09.750Z,15.43
2019-03-28T00:02:38.329Z,15.13
2019-03-28T00:05:07.867Z,15.07
2019-03-28T00:07:36.457Z,15.67
2019-03-28T00:10:05.963Z,15.40
2019-03-28T00:12:34.433Z,15.60
2019-03-28T00:15:03.236Z,17.73
2019-03-28T00:17:31.728Z,17.10
2019-03-28T00:20:06.392Z,17.87
2019-03-28T00:22:54.640Z,14.60
2019-03-28T00:25:24.598Z,15.40
2019-03-28T00:27:53.800Z,14.17
2019-03-28T00:30:22.764Z,16.90
2019-03-28T00:32:51.213Z,15.60
2019-03-28T00:35:19.684Z,14.40
2019-03-28T00:37:48.177Z,16.03
2019-03-28T00:40:16.631Z,16.00
2019-03-28T00:42:45.088Z,15.43
2019-03-28T00:45:13.931Z,16.57
2019-03-28T00:47:42.421Z,17.27
2019-03-28T00:50:11.182Z,15.07
2019-03-28T00:52:39.679Z,18.57
2019-03-28T00:55:08.369Z,17.37
2019-03-28T00:57:36.819Z,14.13
2019-03-28T01:00:07.913Z,16.40
2019-03-28T01:02:36.373Z,16.63
2019-03-28T01:05:06.609Z,14.30
2019-03-28T01:07:35.160Z,14.30
2019-03-28T01:10:04.667Z,16.43
2019-03-28T01:12:33.116Z,12.93
2019-03-28T01:15:01.619Z,13.20
2019-03-28T01:17:30.280Z,10.27
2019-03-28T01:19:58.801Z,15.27
2019-03-28T01:22:27.449Z,15.70
2019-03-28T01:24:57.784Z,18.03
2019-03-28T01:27:26.078Z,15.10
2019-03-28T01:29:54.724Z,17.83
2019-03-28T01:32:23.252Z,14.30
2019-03-28T01:34:51.701Z,14.43
2019-03-28T01:37:20.196Z,18.57
2019-03-28T01:39:48.663Z,18.80
2019-03-28T01:42:17.189Z,14.73
2019-03-28T01:44:45.684Z,17.57
2019-03-28T01:47:14.132Z,13.67
2019-03-28T01:49:42.845Z,17.23
2019-03-28T01:52:11.364Z,18.47
2019-03-28T01:54:39.815Z,16.73
2019-03-28T01:57:11.250Z,18.17
2019-03-28T01:59:38.485Z,19.47
2019-03-28T02:02:07.011Z,24.37
2019-03-28T02:04:35.463Z,23.93
2019-03-28T02:07:04.017Z,19.33
2019-03-28T02:09:32.530Z,18.07
2019-03-28T02:12:01.002Z,18.17
2019-03-28T02:14:29.515Z,20.17
2019-03-28T02:16:58.039Z,25.33
2019-03-28T02:19:26.486Z,26.90
2019-03-28T02:21:54.972Z,33.03
2019-03-28T02:24:23.416Z,28.63
2019-03-28T02:26:51.955Z,31.60
2019-03-28T02:29:20.540Z,28.63
2019-03-28T02:31:49.078Z,40.33
2019-03-28T02:34:17.531Z,29.37
2019-03-28T02:36:46.077Z,31.67
2019-03-28T02:39:14.600Z,38.03
2019-03-28T02:41:43.040Z,38.90
2019-03-28T02:44:12.250Z,48.60
2019-03-28T02:46:40.769Z,42.70
2019-03-28T02:49:09.283Z,46.17
2019-03-28T02:51:37.810Z,32.17
2019-03-28T02:54:06.260Z,36.70
2019-03-28T02:56:34.724Z,38.27
2019-03-28T02:59:03.323Z,46.63
2019-03-28T03:01:31.822Z,30.03
2019-03-28T03:04:00.290Z,39.70
2019-03-28T03:06:28.780Z,33.83
2019-03-28T03:08:57.220Z,28.57
2019-03-28T03:11:25.684Z,35.53
2019-03-28T03:13:54.215Z,35.00
2019-03-28T03:16:22.813Z,35.00
2019-03-28T03:18:51.605Z,36.43
2019-03-28T03:21:20.160Z,22.80
2019-03-28T03:23:48.686Z,29.43
2019-03-28T03:26:17.214Z,31.93
2019-03-28T03:28:45.787Z,39.77
2019-03-28T03:31:20.588Z,24.43
2019-03-28T03:33:44.509Z,32.03
2019-03-28T03:36:13.344Z,26.50
2019-03-28T03:38:41.811Z,26.87
2019-03-28T03:41:10.248Z,40.70
2019-03-28T03:43:38.735Z,56.67
2019-03-28T03:46:07.252Z,52.60
2019-03-28T03:48:35.768Z,32.90
2019-03-28T03:51:04.288Z,55.97
2019-03-28T03:53:32.751Z,49.33
2019-03-28T03:56:01.272Z,46.27
2019-03-28T03:58:29.825Z,46.20
2019-03-28T04:00:58.293Z,32.60
2019-03-28T04:03:26.798Z,42.47
2019-03-28T04:05:55.295Z,37.13
2019-03-28T04:08:23.819Z,41.33
2019-03-28T04:10:52.274Z,26.90
2019-03-28T04:13:20.778Z,39.60
2019-03-28T04:15:49.392Z,36.93
2019-03-28T04:18:21.863Z,29.97
2019-03-28T04:20:48.129Z,36.20
2019-03-28T04:23:16.576Z,27.67
2019-03-28T04:25:45.036Z,38.27
2019-03-28T04:28:30.902Z,31.67
2019-03-28T04:30:46.651Z,34.50
2019-03-28T04:33:15.109Z,30.70
2019-03-28T04:35:43.597Z,28.13
2019-03-28T04:38:12.691Z,27.37
2019-03-28T04:40:41.166Z,26.13
2019-03-28T04:43:09.687Z,22.07
2019-03-28T04:45:38.134Z,30.93
2019-03-28T04:48:06.601Z,31.67
2019-03-28T04:50:35.095Z,31.60
2019-03-28T04:53:03.559Z,32.70
2019-03-28T04:55:32.028Z,26.77
2019-03-28T04:58:00.599Z,37.07
2019-03-28T05:00:29.048Z,21.10
2019-03-28T05:02:57.677Z,29.47
2019-03-28T05:05:26.372Z,33.80
2019-03-28T05:07:54.822Z,30.03
2019-03-28T05:10:23.360Z,33.07
2019-03-28T05:12:51.868Z,27.97
2019-03-28T05:15:20.655Z,30.63
2019-03-28T05:17:49.220Z,37.80
2019-03-28T05:20:17.754Z,26.80
2019-03-28T05:22:46.212Z,30.63
2019-03-28T05:25:34.046Z,28.73
2019-03-28T05:28:02.504Z,33.20
2019-03-28T05:30:31.030Z,22.77
2019-03-28T05:32:59.547Z,23.63
2019-03-28T05:35:28.160Z,22.80
2019-03-28T05:37:56.675Z,30.67
2019-03-28T05:40:25.166Z,27.07
2019-03-28T05:42:53.628Z,30.27
2019-03-28T05:45:22.082Z,27.13
2019-03-28T05:47:50.593Z,28.77
2019-03-28T05:50:19.160Z,31.07
2019-03-28T05:52:47.698Z,19.77
2019-03-28T05:55:16.210Z,20.53
2019-03-28T05:57:44.731Z,17.33
2019-03-28T06:00:13.800Z,21.93
2019-03-28T06:02:42.287Z,25.13
2019-03-28T06:05:10.829Z,24.03
2019-03-28T06:07:39.279Z,32.57
2019-03-28T06:10:08.502Z,22.70
2019-03-28T06:12:36.948Z,19.50
2019-03-28T06:15:07.311Z,23.20
2019-03-28T06:17:35.834Z,22.67
2019-03-28T06:20:06.504Z,20.27
2019-03-28T06:22:35.038Z,21.10
2019-03-28T06:25:05.966Z,17.30
2019-03-28T06:27:34.247Z,10.30
2019-03-28T06:30:02.836Z,11.87
2019-03-28T06:32:42.218Z,13.43
2019-03-28T06:35:01.516Z,16.37
2019-03-28T06:37:29.972Z,15.67
2019-03-28T06:39:58.536Z,15.40
2019-03-28T06:42:27.000Z,15.83
2019-03-28T06:44:55.452Z,12.93
2019-03-28T06:47:23.956Z,10.70
2019-03-28T06:49:52.406Z,12.27
2019-03-28T06:52:21.195Z,11.27
2019-03-28T06:54:49.917Z,11.97
2019-03-28T06:57:19.007Z,10.17
2019-03-28T06:59:47.570Z,12.03
2019-03-28T07:02:17.331Z,12.40
2019-03-28T07:04:46.097Z,9.70
2019-03-28T07:07:14.613Z,12.00
2019-03-28T07:09:44.220Z,11.80
2019-03-28T07:12:14.045Z,10.37
2019-03-28T07:14:42.487Z,11.07
2019-03-28T07:17:10.982Z,9.43
2019-03-28T07:19:39.435Z,8.87
2019-03-28T07:22:07.895Z,9.80
2019-03-28T07:24:36.405Z,9.67
2019-03-28T07:27:04.854Z,9.40
2019-03-28T07:29:33.314Z,9.60
2019-03-28T07:32:01.823Z,10.77
2019-03-28T07:34:30.281Z,10.33
2019-03-28T07:36:58.740Z,13.03
2019-03-28T07:39:27.325Z,13.10
2019-03-28T07:41:55.796Z,9.57
2019-03-28T07:44:24.314Z,9.70
2019-03-28T07:46:52.806Z,11.43
2019-03-28T07:49:21.266Z,11.43
2019-03-28T07:51:49.724Z,10.30
2019-03-28T07:54:18.323Z,8.03
2019-03-28T07:56:46.787Z,10.03
2019-03-28T07:59:15.314Z,8.97
2019-03-28T08:01:43.797Z,7.43
2019-03-28T08:04:12.450Z,6.83
2019-03-28T08:06:49.578Z,6.37
2019-03-28T08:09:11.293Z,5.43
2019-03-28T08:11:39.833Z,5.10
2019-03-28T08:14:08.352Z,4.87
2019-03-28T08:16:36.937Z,5.53
2019-03-28T08:19:07.821Z,7.00
2019-03-28T08:21:35.582Z,4.60
2019-03-28T08:24:23.445Z,5.83
2019-03-28T08:26:52.045Z,6.13
2019-03-28T08:29:20.496Z,5.73
2019-03-28T08:31:50.615Z,7.17
2019-03-28T08:34:19.141Z,7.37
2019-03-28T08:36:47.970Z,5.43
2019-03-28T08:39:17.257Z,5.80
2019-03-28T08:41:48.542Z,7.17
2019-03-28T08:44:16.448Z,5.90
2019-03-28T08:46:45.022Z,5.53
2019-03-28T08:49:32.837Z,5.33
2019-03-28T08:52:01.421Z,4.90
2019-03-28T08:54:29.884Z,4.93
2019-03-28T08:56:58.454Z,4.83
2019-03-28T08:59:27.156Z,5.97
2019-03-28T09:01:55.755Z,5.00
2019-03-28T09:04:24.353Z,5.60
2019-03-28T09:06:52.941Z,8.50
2019-03-28T09:09:41.266Z,7.43
2019-03-28T09:12:09.936Z,5.97
2019-03-28T09:14:38.436Z,5.23
2019-03-28T09:17:06.953Z,4.87
2019-03-28T09:19:38.700Z,5.30
2019-03-28T09:22:05.639Z,5.30
2019-03-28T09:24:34.157Z,7.63
2019-03-28T09:27:02.832Z,5.80
2019-03-28T09:29:31.345Z,5.30
2019-03-28T09:31:59.973Z,5.73
2019-03-28T09:34:28.605Z,4.50
2019-03-28T09:36:57.074Z,5.70
2019-03-28T09:39:25.534Z,4.03
2019-03-28T09:41:54.112Z,5.27
2019-03-28T09:44:22.642Z,4.00
2019-03-28T09:46:51.116Z,4.13
2019-03-28T09:49:19.769Z,4.57
2019-03-28T09:51:48.223Z,4.60
2019-03-28T09:54:16.914Z,4.30
2019-03-28T09:56:45.638Z,4.33
2019-03-28T09:59:14.094Z,4.20
2019-03-28T10:01:42.544Z,3.50
2019-03-28T10:04:11.049Z,3.67
2019-03-28T10:06:39.635Z,4.60
2019-03-28T10:09:08.158Z,4.17
2019-03-28T10:11:36.674Z,4.13
2019-03-28T10:14:05.198Z,4.20
2019-03-28T10:16:33.742Z,6.13
2019-03-28T10:19:02.227Z,5.93
2019-03-28T10:21:30.672Z,5.13
2019-03-28T10:23:59.157Z,4.73
2019-03-28T10:26:27.686Z,4.10
2019-03-28T10:28:56.137Z,3.10
2019-03-28T10:31:24.827Z,3.40
2019-03-28T10:33:53.501Z,3.20
2019-03-28T10:36:21.939Z,3.37
2019-03-28T10:38:50.405Z,3.40
2019-03-28T10:41:18.895Z,2.80
2019-03-28T10:43:47.358Z,3.10
2019-03-28T10:46:16.753Z,2.67
2019-03-28T10:48:45.265Z,3.60
2019-03-28T10:51:13.708Z,3.50
2019-03-28T10:53:42.157Z,3.50
2019-03-28T10:56:21.471Z,3.60
2019-03-28T10:58:40.960Z,3.10
2019-03-28T11:01:09.477Z,3.80
2019-03-28T11:03:38.140Z,4.83
2019-03-28T11:06:06.789Z,3.63
2019-03-28T11:08:36.635Z,5.00
2019-03-28T11:11:05.428Z,3.90
2019-03-28T11:13:33.889Z,4.00
2019-03-28T11:16:02.417Z,4.80
2019-03-28T11:18:30.926Z,3.90
2019-03-28T11:20:59.381Z,3.23
2019-03-28T11:23:27.828Z,3.77
2019-03-28T11:25:57.503Z,4.30
2019-03-28T11:28:26.074Z,3.50
2019-03-28T11:30:54.529Z,3.43
2019-03-28T11:33:23.045Z,3.77
2019-03-28T11:35:51.488Z,3.47
2019-03-28T11:38:20.023Z,3.07
2019-03-28T11:40:48.605Z,3.40
2019-03-28T11:43:17.215Z,3.20
2019-03-28T11:45:45.728Z,3.00
2019-03-28T11:48:14.227Z,3.20
2019-03-28T11:50:42.755Z,3.27
2019-03-28T11:53:11.273Z,4.53
2019-03-28T11:55:39.921Z,3.47
2019-03-28T11:58:08.369Z,3.33
2019-03-28T12:00:36.821Z,3.30
2019-03-28T12:03:05.490Z,3.83
2019-03-28T12:05:33.940Z,4.03
2019-03-28T12:08:02.387Z,4.20
2019-03-28T12:10:30.866Z,3.60
2019-03-28T12:12:59.315Z,3.30
2019-03-28T12:15:27.765Z,3.47
2019-03-28T12:17:56.358Z,3.13
2019-03-28T12:20:24.886Z,5.17
2019-03-28T12:22:56.002Z,5.50
2019-03-28T12:25:23.684Z,12.03
2019-03-28T12:27:52.209Z,4.50
2019-03-28T12:30:20.997Z,4.10
2019-03-28T12:32:49.520Z,4.27
2019-03-28T12:35:18.031Z,4.13
2019-03-28T12:37:46.481Z,3.20
2019-03-28T12:40:15.316Z,3.50
2019-03-28T12:42:43.764Z,3.27
2019-03-28T12:45:12.970Z,2.80
2019-03-28T12:47:43.107Z,3.00
2019-03-28T12:50:12.872Z,3.63
2019-03-28T12:52:41.390Z,3.40
2019-03-28T12:55:10.095Z,3.43
2019-03-28T12:57:38.690Z,3.40
2019-03-28T13:00:09.081Z,3.53
2019-03-28T13:02:37.756Z,3.90
2019-03-28T13:05:09.663Z,5.30
2019-03-28T13:07:38.255Z,3.50
2019-03-28T13:10:11.589Z,3.70
2019-03-28T13:12:40.240Z,2.73
2019-03-28T13:15:09.241Z,2.93
2019-03-28T13:17:37.739Z,3.73
2019-03-28T13:20:09.893Z,3.10
2019-03-28T13:22:38.410Z,3.10
2019-03-28T13:25:07.765Z,3.37
2019-03-28T13:27:36.717Z,3.37
2019-03-28T13:30:08.666Z,3.37
2019-03-28T13:32:42.195Z,2.57
2019-03-28T13:35:08.655Z,2.93
2019-03-28T13:37:37.184Z,3.07
2019-03-28T13:40:06.844Z,2.70
2019-03-28T13:42:36.547Z,3.07
2019-03-28T13:45:07.976Z,3.67
2019-03-28T13:47:36.548Z,2.57
2019-03-28T13:50:10.542Z,3.67
2019-03-28T13:52:39.059Z,3.53
2019-03-28T13:55:10.406Z,4.97
2019-03-28T13:57:38.874Z,3.03
2019-03-28T14:00:09.685Z,3.27
2019-03-28T14:02:38.267Z,2.90
2019-03-28T14:05:07.672Z,3.00
2019-03-28T14:07:36.860Z,3.47
2019-03-28T14:10:08.996Z,3.27
2019-03-28T14:12:37.475Z,3.57
2019-03-28T14:15:06.747Z,3.23
2019-03-28T14:17:35.322Z,4.53
2019-03-28T14:20:05.692Z,3.43
2019-03-28T14:22:34.418Z,3.30
2019-03-28T14:25:02.972Z,4.27
2019-03-28T14:27:31.620Z,3.90
2019-03-28T14:30:00.156Z,3.57
2019-03-28T14:32:29.055Z,3.73
2019-03-28T14:34:57.511Z,3.90
2019-03-28T14:37:25.971Z,4.00
2019-03-28T14:39:54.564Z,4.27
2019-03-28T14:42:23.103Z,4.97
2019-03-28T14:44:51.700Z,3.70
2019-03-28T14:47:20.227Z,4.47
2019-03-28T14:49:48.753Z,4.07
2019-03-28T14:52:17.835Z,4.13
2019-03-28T14:54:46.359Z,3.67
2019-03-28T14:57:15.871Z,4.37
2019-03-28T14:59:44.399Z,4.30
2019-03-28T15:02:13.060Z,4.37
2019-03-28T15:04:41.513Z,3.80
2019-03-28T15:07:10.038Z,4.57
2019-03-28T15:09:38.539Z,3.60
2019-03-28T15:12:07.072Z,3.80
2019-03-28T15:14:35.558Z,3.67
2019-03-28T15:17:04.144Z,3.20
2019-03-28T15:19:32.790Z,3.57
2019-03-28T15:22:01.359Z,3.12
2019-03-28T15:24:29.919Z,5.90
2019-03-28T15:26:58.824Z,4.53
2019-03-28T15:29:27.360Z,3.02
2019-03-28T15:31:56.052Z,3.10
2019-03-28T15:34:24.528Z,3.30
2019-03-28T15:36:53.647Z,3.02
2019-03-28T15:39:22.438Z,2.77
2019-03-28T15:41:50.906Z,2.90
2019-03-28T15:44:19.600Z,3.00
2019-03-28T15:46:48.100Z,3.15
2019-03-28T15:49:16.634Z,3.10
2019-03-28T15:51:45.124Z,3.10
2019-03-28T15:54:13.660Z,2.80
2019-03-28T15:56:42.125Z,4.10
2019-03-28T15:59:10.666Z,3.12
2019-03-28T16:01:39.292Z,3.30
2019-03-28T16:04:07.759Z,3.50
2019-03-28T16:06:36.280Z,3.20
2019-03-28T16:09:06.670Z,3.22
2019-03-28T16:11:35.184Z,3.30
2019-03-28T16:14:03.743Z,5.17
2019-03-28T16:16:32.390Z,3.45
2019-03-28T16:19:01.748Z,3.25
2019-03-28T16:21:30.586Z,4.22
2019-03-28T16:23:59.187Z,2.90
2019-03-28T16:26:27.726Z,3.17
2019-03-28T16:28:56.584Z,2.90
2019-03-28T16:31:25.781Z,3.15
2019-03-28T16:34:06.080Z,3.27
2019-03-28T16:36:24.619Z,4.03
2019-03-28T16:38:53.179Z,3.23
2019-03-28T16:41:21.705Z,3.17
2019-03-28T16:43:50.167Z,3.97
2019-03-28T16:46:20.363Z,4.17
2019-03-28T16:48:48.829Z,3.90
2019-03-28T16:51:18.869Z,3.90
2019-03-28T16:53:47.380Z,3.70
2019-03-28T16:56:15.844Z,4.50
2019-03-28T16:58:44.376Z,5.57
2019-03-28T17:01:13.020Z,3.70
2019-03-28T17:03:41.549Z,3.70
2019-03-28T17:06:10.864Z,4.87
2019-03-28T17:08:41.940Z,4.27
2019-03-28T17:11:12.115Z,3.90
2019-03-28T17:13:40.592Z,4.80
2019-03-28T17:16:09.408Z,5.73
2019-03-28T17:18:37.900Z,4.07
2019-03-28T17:21:06.468Z,4.03
2019-03-28T17:23:35.048Z,4.10
2019-03-28T17:26:03.968Z,3.90
2019-03-28T17:28:32.505Z,5.47
2019-03-28T17:31:01.121Z,4.83
2019-03-28T17:33:29.663Z,7.93
2019-03-28T17:35:58.196Z,5.23
2019-03-28T17:38:26.782Z,9.13
2019-03-28T17:40:55.237Z,5.50
2019-03-28T17:43:23.776Z,6.83
2019-03-28T17:45:52.365Z,4.87
2019-03-28T17:48:20.969Z,4.90
2019-03-28T17:50:49.447Z,4.63
2019-03-28T17:53:18.005Z,4.57
2019-03-28T17:55:46.524Z,5.87
2019-03-28T17:58:14.993Z,4.37
2019-03-28T18:00:45.199Z,7.27
2019-03-28T18:03:13.800Z,4.90
2019-03-28T18:05:42.588Z,6.43
2019-03-28T18:08:11.445Z,8.47
2019-03-28T18:10:39.976Z,5.33
2019-03-28T18:13:08.623Z,11.13
2019-03-28T18:15:37.303Z,5.50
2019-03-28T18:18:06.011Z,4.60
2019-03-28T18:20:34.627Z,6.77
2019-03-28T18:23:03.215Z,5.10
2019-03-28T18:25:31.809Z,6.00
2019-03-28T18:28:00.393Z,6.47
2019-03-28T18:30:29.038Z,8.20
2019-03-28T18:32:57.655Z,6.07
2019-03-28T18:35:26.357Z,7.40
2019-03-28T18:37:54.902Z,5.50
2019-03-28T18:40:23.497Z,7.17
2019-03-28T18:42:52.079Z,5.43
2019-03-28T18:45:20.704Z,8.63
2019-03-28T18:47:49.161Z,7.20
2019-03-28T18:50:17.918Z,6.13
2019-03-28T18:52:46.788Z,6.37
2019-03-28T18:55:16.191Z,8.80
2019-03-28T18:57:44.719Z,9.73
2019-03-28T19:00:13.773Z,7.33
2019-03-28T19:02:42.409Z,9.30
2019-03-28T19:05:19.674Z,6.97
2019-03-28T19:07:41.569Z,5.27
2019-03-28T19:10:11.219Z,6.67
2019-03-28T19:12:40.350Z,7.03
2019-03-28T19:15:09.500Z,10.70
2019-03-28T19:17:38.077Z,9.90
2019-03-28T19:20:09.857Z,9.40
2019-03-28T19:22:58.554Z,11.40
2019-03-28T19:25:27.427Z,12.20
2019-03-28T19:27:55.892Z,9.53
2019-03-28T19:30:32.419Z,7.70
2019-03-28T19:33:01.115Z,8.83
2019-03-28T19:35:33.236Z,9.20
2019-03-28T19:37:59.970Z,7.63
2019-03-28T19:40:28.663Z,11.30
2019-03-28T19:42:57.161Z,10.83
2019-03-28T19:45:31.385Z,12.30
2019-03-28T19:48:19.977Z,10.27
2019-03-28T19:50:49.423Z,10.63
2019-03-28T19:53:21.304Z,10.83
2019-03-28T19:55:49.880Z,11.93
2019-03-28T19:58:19.297Z,12.67
2019-03-28T20:00:47.944Z,12.70
2019-03-28T20:03:16.673Z,15.77
2019-03-28T20:05:48.057Z,15.80
2019-03-28T20:08:17.388Z,14.00
2019-03-28T20:10:45.822Z,15.07
2019-03-28T20:13:14.424Z,12.40
2019-03-28T20:15:42.948Z,14.40
2019-03-28T20:18:11.473Z,13.40
2019-03-28T20:20:39.926Z,12.07
2019-03-28T20:23:08.459Z,14.80
2019-03-28T20:25:37.010Z,14.57
2019-03-28T20:28:05.578Z,15.20
2019-03-28T20:30:34.143Z,16.97
2019-03-28T20:33:02.724Z,15.00
2019-03-28T20:35:31.190Z,13.60
2019-03-28T20:38:02.410Z,13.20
2019-03-28T20:40:31.828Z,12.33
2019-03-28T20:43:00.930Z,11.00
2019-03-28T20:45:29.755Z,11.43
2019-03-28T20:47:58.358Z,11.27
2019-03-28T20:50:28.049Z,10.23
2019-03-28T20:52:57.296Z,11.20
2019-03-28T20:55:25.927Z,11.33
2019-03-28T20:57:54.504Z,10.37
2019-03-28T21:00:35.448Z,9.10
2019-03-28T21:03:04.380Z,10.97
2019-03-28T21:05:32.844Z,8.83
2019-03-28T21:08:02.089Z,11.20
2019-03-28T21:10:33.473Z,8.63
2019-03-28T21:13:00.729Z,9.70
2019-03-28T21:15:29.312Z,8.87
2019-03-28T21:17:57.779Z,8.13
2019-03-28T21:20:26.337Z,11.10
2019-03-28T21:22:54.826Z,7.33
2019-03-28T21:25:23.279Z,6.87
2019-03-28T21:27:51.724Z,7.83
2019-03-28T21:30:20.986Z,9.27
2019-03-28T21:32:55.263Z,6.17
2019-03-28T21:35:19.725Z,8.13
2019-03-28T21:37:48.353Z,10.40
2019-03-28T21:40:16.895Z,8.53
2019-03-28T21:42:45.445Z,7.03
2019-03-28T21:45:15.062Z,10.37
2019-03-28T21:47:43.820Z,13.23
2019-03-28T21:50:12.515Z,14.63
2019-03-28T21:52:41.166Z,10.07
2019-03-28T21:55:11.500Z,11.07
2019-03-28T21:57:42.544Z,10.60
2019-03-28T22:00:11.395Z,12.90
2019-03-28T22:02:39.934Z,12.53
2019-03-28T22:05:09.644Z,11.53
2019-03-28T22:07:38.158Z,11.33
2019-03-28T22:10:08.901Z,13.57
2019-03-28T22:12:37.762Z,14.93
2019-03-28T22:15:07.895Z,14.70
2019-03-28T22:17:36.968Z,11.63
2019-03-28T22:20:07.286Z,11.17
2019-03-28T22:22:35.982Z,11.63
2019-03-28T22:25:05.964Z,13.80
2019-03-28T22:27:34.429Z,10.37
2019-03-28T22:30:03.465Z,17.37
2019-03-28T22:32:31.996Z,11.87
2019-03-28T22:35:00.476Z,12.10
2019-03-28T22:37:29.120Z,12.50
2019-03-28T22:39:57.810Z,13.63
2019-03-28T22:42:26.305Z,16.00
2019-03-28T22:44:54.842Z,14.70
2019-03-28T22:47:23.315Z,14.53
2019-03-28T22:49:51.830Z,16.33
2019-03-28T22:52:21.298Z,13.20
2019-03-28T22:54:49.853Z,14.77
2019-03-28T22:57:18.330Z,14.07
2019-03-28T22:59:46.832Z,17.60
2019-03-28T23:02:15.366Z,17.43
2019-03-28T23:04:44.021Z,13.17
2019-03-28T23:07:12.585Z,14.80
2019-03-28T23:09:41.111Z,14.03
2019-03-28T23:12:09.576Z,13.00
2019-03-28T23:14:38.319Z,13.70
2019-03-28T23:17:06.798Z,12.90
2019-03-28T23:19:35.326Z,11.00
2019-03-28T23:22:03.838Z,11.23
2019-03-28T23:24:32.312Z,14.57
2019-03-28T23:27:00.986Z,12.27
2019-03-28T23:29:29.810Z,12.33
2019-03-28T23:31:58.266Z,14.07
2019-03-28T23:34:26.703Z,10.97
2019-03-28T23:36:55.212Z,11.43
2019-03-28T23:39:23.659Z,11.37
2019-03-28T23:41:52.193Z,12.37
2019-03-28T23:44:22.341Z,11.70
2019-03-28T23:46:50.814Z,13.70
2019-03-28T23:49:19.289Z,11.70
2019-03-28T23:51:47.854Z,12.27
2019-03-28T23:54:16.313Z,9.10
2019-03-28T23:56:44.793Z,11.50
2019-03-28T23:59:13.536Z,9.27
